createdAt,value
2022-07-29T00:01:43.045Z,9.60
2022-07-29T00:04:10.554Z,8.75
2022-07-29T00:06:37.838Z,9.40
2022-07-29T00:09:05.528Z,9.23
2022-07-29T00:11:32.943Z,8.98
2022-07-29T00:14:00.233Z,9.25
2022-07-29T00:16:27.702Z,10.00
2022-07-29T00:18:54.981Z,10.02
2022-07-29T00:21:22.275Z,9.68
2022-07-29T00:23:49.707Z,9.75
2022-07-29T00:26:16.902Z,9.43
2022-07-29T00:28:44.256Z,9.93
2022-07-29T00:31:12.014Z,9.77
2022-07-29T00:33:39.292Z,10.25
2022-07-29T00:36:06.748Z,10.30
2022-07-29T00:38:34.037Z,10.60
2022-07-29T00:41:01.315Z,10.38
2022-07-29T00:43:28.510Z,10.40
2022-07-29T00:45:56.196Z,9.52
2022-07-29T00:48:23.479Z,10.23
2022-07-29T00:50:50.881Z,9.93
2022-07-29T00:53:18.210Z,9.63
2022-07-29T00:55:45.929Z,9.98
2022-07-29T00:58:14.595Z,10.60
2022-07-29T01:00:43.970Z,10.80
2022-07-29T01:03:13.609Z,10.52
2022-07-29T01:05:50.429Z,10.52
2022-07-29T01:08:21.461Z,10.95
2022-07-29T01:10:50.122Z,9.80
2022-07-29T01:13:18.046Z,11.23
2022-07-29T01:15:53.849Z,10.30
2022-07-29T01:18:29.056Z,11.38
2022-07-29T01:21:09.211Z,10.82
2022-07-29T01:23:44.656Z,10.77
2022-07-29T01:26:37.146Z,10.98
2022-07-29T01:29:25.792Z,11.20
2022-07-29T01:32:07.029Z,11.55
2022-07-29T01:34:40.539Z,10.65
2022-07-29T01:37:23.483Z,11.15
2022-07-29T01:39:53.703Z,10.98
2022-07-29T01:42:46.415Z,11.90
2022-07-29T01:45:38.373Z,10.85
2022-07-29T01:48:17.884Z,11.30
2022-07-29T01:50:51.826Z,10.27
2022-07-29T01:53:43.832Z,10.35
2022-07-29T01:56:13.510Z,10.07
2022-07-29T01:58:43.415Z,9.77
2022-07-29T02:01:13.811Z,9.85
2022-07-29T02:03:47.235Z,9.65
2022-07-29T02:06:19.804Z,10.20
2022-07-29T02:08:48.348Z,10.45
2022-07-29T02:11:15.553Z,10.93
2022-07-29T02:13:44.620Z,10.85
2022-07-29T02:16:13.171Z,10.18
2022-07-29T02:18:43.264Z,9.88
2022-07-29T02:21:15.184Z,10.07
2022-07-29T02:23:50.940Z,9.32
2022-07-29T02:26:21.646Z,9.50
2022-07-29T02:28:51.016Z,9.57
2022-07-29T02:31:22.962Z,9.48
2022-07-29T02:33:51.546Z,9.85
2022-07-29T02:36:22.253Z,9.35
2022-07-29T02:38:54.653Z,9.60
2022-07-29T02:41:27.477Z,9.27
2022-07-29T02:44:05.375Z,10.00
2022-07-29T02:46:36.108Z,9.57
2022-07-29T02:49:10.834Z,9.13
2022-07-29T02:51:50.535Z,9.75
2022-07-29T02:54:25.471Z,9.23
2022-07-29T02:56:56.602Z,9.25
2022-07-29T02:59:28.243Z,9.65
2022-07-29T03:01:56.870Z,9.65
2022-07-29T03:04:26.960Z,9.50
2022-07-29T03:06:55.706Z,9.35
2022-07-29T03:09:24.560Z,9.75
2022-07-29T03:11:52.184Z,9.43
2022-07-29T03:14:21.263Z,9.80
2022-07-29T03:16:50.102Z,10.10
2022-07-29T03:19:18.492Z,10.00
2022-07-29T03:21:45.926Z,9.80
2022-07-29T03:24:33.476Z,10.43
2022-07-29T03:27:01.385Z,9.73
2022-07-29T03:29:33.104Z,10.45
2022-07-29T03:32:08.264Z,10.07
2022-07-29T03:34:37.723Z,10.15
2022-07-29T03:37:07.203Z,9.82
2022-07-29T03:39:40.411Z,8.88
2022-07-29T03:42:09.703Z,10.23
2022-07-29T03:44:38.435Z,9.38
2022-07-29T03:47:09.255Z,9.80
2022-07-29T03:49:39.282Z,9.57
2022-07-29T03:52:07.369Z,10.13
2022-07-29T03:54:35.065Z,9.48
2022-07-29T03:57:03.582Z,9.43
2022-07-29T03:59:33.884Z,9.52
2022-07-29T04:02:04.493Z,10.00
2022-07-29T04:04:34.635Z,9.65
2022-07-29T04:07:02.248Z,9.35
2022-07-29T04:09:29.748Z,9.70
2022-07-29T04:12:02.977Z,9.90
2022-07-29T04:17:00.257Z,9.77
2022-07-29T04:19:27.780Z,9.43
2022-07-29T04:21:55.110Z,9.77
2022-07-29T04:24:22.515Z,9.60
2022-07-29T04:26:50.138Z,9.52
2022-07-29T04:29:17.371Z,9.88
2022-07-29T04:31:45.033Z,9.68
2022-07-29T04:34:13.727Z,10.05
2022-07-29T04:36:41.289Z,9.70
2022-07-29T04:39:08.704Z,9.73
2022-07-29T04:41:35.812Z,9.88
2022-07-29T04:44:07.000Z,9.82
2022-07-29T04:46:36.086Z,9.73
2022-07-29T04:49:04.663Z,9.57
2022-07-29T04:51:32.510Z,9.70
2022-07-29T04:53:59.739Z,10.68
2022-07-29T04:56:27.719Z,9.63
2022-07-29T04:58:55.185Z,9.90
2022-07-29T05:01:22.571Z,9.45
2022-07-29T05:03:50.055Z,9.55
2022-07-29T05:06:17.438Z,9.30
2022-07-29T05:08:44.936Z,9.20
2022-07-29T05:11:14.929Z,9.38
2022-07-29T05:13:47.171Z,9.77
2022-07-29T05:16:15.899Z,10.02
2022-07-29T05:18:43.392Z,9.30
2022-07-29T05:21:10.927Z,9.45
2022-07-29T05:23:38.441Z,10.07
2022-07-29T05:26:05.600Z,9.90
2022-07-29T05:28:38.983Z,9.52
2022-07-29T05:31:06.349Z,9.23
2022-07-29T05:33:36.504Z,9.23
2022-07-29T05:36:08.194Z,9.40
2022-07-29T05:38:36.773Z,9.32
2022-07-29T05:41:05.331Z,8.70
2022-07-29T05:43:33.204Z,9.30
2022-07-29T05:46:00.654Z,9.70
2022-07-29T05:48:28.958Z,8.68
2022-07-29T05:50:56.318Z,8.55
2022-07-29T05:53:24.051Z,8.18
2022-07-29T05:55:51.939Z,8.63
2022-07-29T05:58:19.868Z,8.30
2022-07-29T06:00:47.127Z,8.20
2022-07-29T06:03:14.514Z,8.88
2022-07-29T06:05:42.006Z,9.25
2022-07-29T06:08:09.259Z,7.82
2022-07-29T06:10:37.441Z,8.25
2022-07-29T06:13:04.852Z,8.65
2022-07-29T06:15:32.244Z,8.25
2022-07-29T06:18:01.601Z,8.50
2022-07-29T06:20:33.160Z,8.45
2022-07-29T06:23:00.881Z,8.10
2022-07-29T06:25:31.877Z,8.52
2022-07-29T06:27:59.256Z,8.20
2022-07-29T06:30:26.695Z,8.23
2022-07-29T06:32:54.423Z,7.03
2022-07-29T06:35:39.167Z,8.02
2022-07-29T06:38:25.092Z,7.55
2022-07-29T06:41:07.026Z,7.55
2022-07-29T06:43:50.364Z,7.60
2022-07-29T06:46:21.370Z,6.97
2022-07-29T06:48:49.322Z,7.30
2022-07-29T06:51:22.676Z,7.65
2022-07-29T06:53:59.447Z,7.20
2022-07-29T06:56:38.582Z,7.07
2022-07-29T06:59:09.146Z,6.25
2022-07-29T07:01:41.021Z,7.00
2022-07-29T07:04:10.170Z,7.15
2022-07-29T07:06:37.746Z,6.70
2022-07-29T07:09:05.526Z,7.10
2022-07-29T07:11:33.956Z,7.60
2022-07-29T07:14:03.918Z,8.18
2022-07-29T07:16:32.858Z,6.90
2022-07-29T07:19:01.098Z,7.03
2022-07-29T07:21:30.605Z,7.30
2022-07-29T07:23:59.499Z,6.38
2022-07-29T07:26:27.096Z,6.95
2022-07-29T07:28:54.441Z,7.10
2022-07-29T07:31:21.837Z,7.28
2022-07-29T07:33:49.334Z,7.50
2022-07-29T07:36:16.617Z,6.70
2022-07-29T07:38:43.775Z,7.00
2022-07-29T07:41:11.095Z,6.88
2022-07-29T07:43:38.956Z,6.65
2022-07-29T07:46:06.227Z,5.70
2022-07-29T07:48:36.083Z,6.50
2022-07-29T07:51:03.473Z,6.40
2022-07-29T07:53:31.637Z,6.55
2022-07-29T07:56:15.706Z,6.65
2022-07-29T07:58:43.175Z,6.18
2022-07-29T08:01:11.278Z,6.63
2022-07-29T08:03:39.092Z,6.65
2022-07-29T08:06:07.613Z,6.57
2022-07-29T08:08:35.207Z,6.47
2022-07-29T08:11:09.548Z,6.95
2022-07-29T08:13:39.374Z,5.82
2022-07-29T08:16:14.178Z,6.18
2022-07-29T08:18:43.427Z,6.18
2022-07-29T08:21:11.280Z,6.07
2022-07-29T08:23:51.629Z,6.10
2022-07-29T08:26:23.672Z,5.90
2022-07-29T08:28:52.099Z,6.15
2022-07-29T08:31:19.561Z,6.25
2022-07-29T08:33:47.034Z,6.20
2022-07-29T08:36:14.759Z,6.30
2022-07-29T08:38:42.253Z,5.60
2022-07-29T08:41:09.632Z,6.10
2022-07-29T08:43:38.674Z,6.20
2022-07-29T08:46:06.200Z,6.18
2022-07-29T08:48:34.586Z,6.32
2022-07-29T08:51:03.154Z,6.97
2022-07-29T08:53:33.375Z,6.10
2022-07-29T08:56:03.086Z,6.15
2022-07-29T08:58:36.955Z,6.03
2022-07-29T09:01:07.691Z,6.35
2022-07-29T09:03:42.850Z,6.47
2022-07-29T09:06:10.851Z,5.97
2022-07-29T09:08:38.180Z,6.07
2022-07-29T09:11:05.870Z,6.07
2022-07-29T09:13:33.401Z,6.28
2022-07-29T09:16:04.495Z,6.07
2022-07-29T09:21:33.787Z,6.35
2022-07-29T09:24:15.465Z,6.40
2022-07-29T09:26:45.821Z,6.18
2022-07-29T09:29:19.305Z,6.70
2022-07-29T09:31:49.769Z,6.18
2022-07-29T09:34:22.554Z,6.38
2022-07-29T09:36:51.767Z,6.20
2022-07-29T09:39:33.079Z,6.00
2022-07-29T09:42:03.539Z,6.20
2022-07-29T09:44:49.411Z,6.05
2022-07-29T09:47:18.490Z,6.10
2022-07-29T09:50:01.695Z,6.13
2022-07-29T09:52:31.884Z,6.03
2022-07-29T09:55:13.830Z,5.90
2022-07-29T09:57:47.612Z,6.00
2022-07-29T10:00:20.415Z,5.80
2022-07-29T10:02:48.891Z,6.07
2022-07-29T10:05:26.155Z,5.30
2022-07-29T10:07:59.687Z,5.65
2022-07-29T10:10:32.933Z,5.80
2022-07-29T10:13:08.891Z,5.30
2022-07-29T10:15:42.132Z,5.22
2022-07-29T10:18:10.321Z,5.43
2022-07-29T10:20:38.690Z,5.63
2022-07-29T10:23:06.896Z,5.40
2022-07-29T10:25:34.674Z,5.32
2022-07-29T10:28:02.044Z,5.10
2022-07-29T10:30:29.864Z,5.25
2022-07-29T10:33:12.925Z,5.32
2022-07-29T10:35:54.093Z,4.97
2022-07-29T10:39:09.470Z,5.05
2022-07-29T10:41:56.185Z,5.00
2022-07-29T10:44:26.219Z,4.90
2022-07-29T10:46:54.834Z,5.22
2022-07-29T10:49:30.496Z,5.07
2022-07-29T10:52:08.404Z,5.40
2022-07-29T10:54:44.205Z,5.40
2022-07-29T10:57:25.766Z,5.20
2022-07-29T11:00:17.061Z,5.88
2022-07-29T11:02:47.003Z,5.63
2022-07-29T11:05:20.605Z,5.55
2022-07-29T11:08:20.127Z,5.72
2022-07-29T11:10:50.140Z,5.43
2022-07-29T11:13:52.321Z,5.32
2022-07-29T11:16:26.797Z,5.50
2022-07-29T11:19:14.159Z,5.75
2022-07-29T11:21:55.162Z,5.43
2022-07-29T11:24:32.356Z,5.38
2022-07-29T11:27:40.777Z,5.50
2022-07-29T11:30:10.917Z,5.32
2022-07-29T11:32:41.047Z,5.10
2022-07-29T11:35:37.682Z,5.00
2022-07-29T11:38:28.799Z,5.65
2022-07-29T11:41:18.353Z,5.25
2022-07-29T11:44:01.384Z,5.40
2022-07-29T11:46:50.098Z,6.10
2022-07-29T11:49:32.024Z,5.88
2022-07-29T11:52:04.265Z,5.88
2022-07-29T11:54:38.878Z,5.80
2022-07-29T11:57:22.210Z,5.90
2022-07-29T11:59:50.737Z,5.97
2022-07-29T12:05:11.125Z,6.00
2022-07-29T12:07:02.499Z,5.70
2022-07-29T12:07:41.058Z,5.47
2022-07-29T12:10:19.785Z,6.10
2022-07-29T12:12:57.044Z,5.40
2022-07-29T12:15:39.281Z,5.68
2022-07-29T12:18:24.059Z,5.80
2022-07-29T12:21:06.151Z,6.03
2022-07-29T12:23:34.409Z,5.80
2022-07-29T12:26:10.859Z,5.90
2022-07-29T12:28:49.977Z,5.53
2022-07-29T12:31:41.882Z,7.10
2022-07-29T12:34:05.304Z,5.90
2022-07-29T12:36:33.644Z,5.90
2022-07-29T12:39:01.115Z,5.82
2022-07-29T12:41:32.165Z,5.68
2022-07-29T12:43:59.584Z,5.82
2022-07-29T12:46:26.970Z,6.00
2022-07-29T12:48:59.830Z,6.00
2022-07-29T12:51:32.430Z,6.17
2022-07-29T12:54:30.512Z,5.80
2022-07-29T12:57:01.487Z,6.00
2022-07-29T12:59:28.923Z,5.60
2022-07-29T13:01:56.500Z,5.82
2022-07-29T13:04:32.208Z,5.60
2022-07-29T13:07:05.311Z,5.45
2022-07-29T13:09:49.659Z,5.55
2022-07-29T13:12:17.297Z,5.63
2022-07-29T13:14:47.300Z,5.90
2022-07-29T13:17:16.892Z,5.50
2022-07-29T13:20:13.749Z,5.45
2022-07-29T13:22:48.992Z,5.50
2022-07-29T13:25:25.779Z,5.68
2022-07-29T13:27:55.566Z,5.50
2022-07-29T13:30:24.512Z,5.75
2022-07-29T13:32:53.617Z,6.00
2022-07-29T13:35:21.462Z,5.38
2022-07-29T13:37:50.086Z,5.43
2022-07-29T13:40:19.466Z,5.45
2022-07-29T13:42:47.060Z,5.60
2022-07-29T13:45:14.823Z,5.63
2022-07-29T13:47:47.449Z,5.20
2022-07-29T13:50:16.867Z,5.30
2022-07-29T13:52:44.228Z,5.53
2022-07-29T13:55:11.662Z,5.57
2022-07-29T13:57:39.066Z,5.20
2022-07-29T14:00:06.828Z,5.07
2022-07-29T14:02:36.031Z,5.63
2022-07-29T14:05:07.992Z,5.57
2022-07-29T14:07:36.019Z,5.40
2022-07-29T14:10:04.327Z,5.70
2022-07-29T14:12:32.464Z,5.95
2022-07-29T14:15:00.304Z,5.43
2022-07-29T14:17:28.007Z,5.63
2022-07-29T14:19:55.392Z,5.00
2022-07-29T14:22:24.608Z,5.43
2022-07-29T14:24:53.681Z,5.80
2022-07-29T14:27:37.783Z,5.82
2022-07-29T14:30:07.363Z,5.72
2022-07-29T14:32:34.999Z,6.00
2022-07-29T14:35:02.537Z,5.38
2022-07-29T14:37:39.720Z,5.47
2022-07-29T14:40:08.925Z,5.53
2022-07-29T14:42:38.842Z,5.47
2022-07-29T14:45:09.101Z,5.85
2022-07-29T14:47:36.838Z,5.80
2022-07-29T14:50:05.406Z,5.30
2022-07-29T14:52:32.882Z,5.35
2022-07-29T14:55:00.722Z,5.28
2022-07-29T14:57:28.596Z,5.28
2022-07-29T14:59:56.686Z,5.53
2022-07-29T15:02:40.005Z,5.25
2022-07-29T15:05:12.044Z,5.25
2022-07-29T15:07:39.648Z,5.22
2022-07-29T15:10:07.732Z,5.15
2022-07-29T15:12:36.048Z,4.93
2022-07-29T15:15:03.689Z,4.95
2022-07-29T15:17:31.883Z,5.70
2022-07-29T15:19:59.147Z,5.88
2022-07-29T15:22:26.492Z,5.45
2022-07-29T15:24:54.018Z,5.13
2022-07-29T15:27:21.581Z,5.63
2022-07-29T15:29:49.122Z,4.90
2022-07-29T15:32:16.596Z,5.10
2022-07-29T15:34:44.067Z,4.88
2022-07-29T15:37:12.613Z,4.88
2022-07-29T15:39:40.206Z,5.43
2022-07-29T15:42:07.611Z,4.93
2022-07-29T15:44:35.594Z,5.10
2022-07-29T15:47:08.769Z,5.35
2022-07-29T15:49:48.500Z,5.30
2022-07-29T15:52:25.198Z,4.75
2022-07-29T15:54:57.903Z,5.15
2022-07-29T15:57:26.144Z,5.00
2022-07-29T15:59:53.797Z,4.95
2022-07-29T16:02:21.348Z,5.00
2022-07-29T16:04:48.895Z,4.90
2022-07-29T16:07:16.884Z,4.95
2022-07-29T16:09:49.366Z,4.97
2022-07-29T16:12:18.721Z,4.85
2022-07-29T16:14:46.342Z,4.95
2022-07-29T16:17:14.236Z,4.97
2022-07-29T16:19:44.173Z,5.00
2022-07-29T16:22:12.706Z,5.07
2022-07-29T16:24:40.460Z,5.53
2022-07-29T16:27:08.336Z,5.10
2022-07-29T16:29:37.416Z,5.25
2022-07-29T16:32:07.182Z,5.35
2022-07-29T16:34:34.796Z,5.68
2022-07-29T16:37:02.851Z,5.38
2022-07-29T16:39:30.372Z,5.32
2022-07-29T16:42:00.792Z,5.40
2022-07-29T16:44:29.163Z,5.43
2022-07-29T16:46:59.318Z,5.57
2022-07-29T16:49:28.518Z,5.75
2022-07-29T16:51:55.988Z,5.50
2022-07-29T16:54:23.659Z,5.20
2022-07-29T16:56:51.133Z,5.43
2022-07-29T16:59:18.718Z,5.60
2022-07-29T17:01:46.082Z,5.43
2022-07-29T17:04:15.339Z,5.70
2022-07-29T17:06:43.138Z,5.50
2022-07-29T17:09:12.750Z,5.65
2022-07-29T17:11:53.687Z,6.35
2022-07-29T17:14:27.828Z,5.72
2022-07-29T17:17:00.365Z,5.80
2022-07-29T17:19:31.751Z,5.70
2022-07-29T17:22:08.441Z,5.40
2022-07-29T17:24:38.293Z,5.70
2022-07-29T17:27:06.498Z,5.38
2022-07-29T17:29:37.386Z,5.30
2022-07-29T17:32:07.550Z,5.43
2022-07-29T17:34:39.554Z,5.35
2022-07-29T17:37:09.668Z,5.72
2022-07-29T17:39:40.856Z,5.90
2022-07-29T17:42:09.744Z,5.20
2022-07-29T17:44:38.010Z,5.55
2022-07-29T17:47:10.652Z,5.57
2022-07-29T17:49:44.648Z,5.47
2022-07-29T17:52:12.088Z,5.70
2022-07-29T17:54:39.293Z,5.90
2022-07-29T17:57:07.116Z,5.90
2022-07-29T17:59:34.602Z,5.93
2022-07-29T18:02:01.999Z,6.00
2022-07-29T18:04:31.119Z,6.10
2022-07-29T18:06:58.678Z,5.80
2022-07-29T18:09:26.158Z,6.63
2022-07-29T18:11:53.425Z,5.57
2022-07-29T18:14:20.582Z,6.18
2022-07-29T18:16:48.252Z,6.20
2022-07-29T18:19:16.316Z,5.80
2022-07-29T18:21:51.914Z,6.10
2022-07-29T18:24:25.776Z,5.72
2022-07-29T18:26:54.196Z,6.15
2022-07-29T18:29:21.861Z,6.30
2022-07-29T18:31:49.631Z,5.95
2022-07-29T18:34:17.246Z,5.88
2022-07-29T18:36:46.026Z,6.70
2022-07-29T18:39:20.300Z,6.30
2022-07-29T18:41:50.736Z,6.22
2022-07-29T18:44:21.977Z,6.05
2022-07-29T18:46:51.587Z,6.20
2022-07-29T18:49:19.403Z,5.63
2022-07-29T18:51:46.784Z,6.35
2022-07-29T18:54:15.117Z,6.03
2022-07-29T18:56:42.441Z,5.68
2022-07-29T18:59:11.559Z,6.18
2022-07-29T19:01:39.248Z,6.28
2022-07-29T19:04:10.883Z,5.70
2022-07-29T19:06:38.451Z,6.45
2022-07-29T19:09:05.843Z,5.55
2022-07-29T19:11:33.795Z,6.15
2022-07-29T19:14:03.905Z,6.22
2022-07-29T19:16:32.046Z,5.53
2022-07-29T19:19:01.094Z,5.45
2022-07-29T19:21:29.034Z,5.80
2022-07-29T19:24:06.024Z,5.60
2022-07-29T19:26:39.778Z,6.13
2022-07-29T19:29:07.041Z,5.57
2022-07-29T19:31:34.353Z,6.18
2022-07-29T19:34:01.674Z,5.22
2022-07-29T19:36:29.044Z,5.72
2022-07-29T19:38:56.345Z,5.40
2022-07-29T19:41:23.660Z,5.63
2022-07-29T19:43:53.073Z,6.15
2022-07-29T19:46:21.765Z,5.45
2022-07-29T19:48:49.504Z,5.75
2022-07-29T19:51:17.444Z,5.60
2022-07-29T19:53:44.733Z,5.35
2022-07-29T19:56:12.011Z,5.57
2022-07-29T19:58:41.269Z,6.15
2022-07-29T20:01:10.694Z,5.60
2022-07-29T20:03:40.344Z,5.47
2022-07-29T20:06:08.063Z,5.70
2022-07-29T20:08:35.600Z,5.38
2022-07-29T20:11:03.653Z,5.60
2022-07-29T20:13:33.226Z,5.53
2022-07-29T20:16:01.968Z,5.97
2022-07-29T20:18:29.475Z,5.75
2022-07-29T20:20:57.714Z,5.68
2022-07-29T20:23:25.147Z,5.60
2022-07-29T20:25:54.136Z,5.65
2022-07-29T20:28:22.409Z,5.97
2022-07-29T20:30:49.789Z,5.53
2022-07-29T20:33:16.984Z,5.65
2022-07-29T20:35:44.556Z,5.50
2022-07-29T20:38:15.126Z,5.60
2022-07-29T20:43:13.160Z,5.35
2022-07-29T20:45:40.512Z,5.82
2022-07-29T20:48:08.225Z,5.60
2022-07-29T20:50:36.141Z,5.25
2022-07-29T20:53:03.627Z,5.10
2022-07-29T20:55:32.259Z,5.40
2022-07-29T20:57:59.459Z,5.55
2022-07-29T21:00:26.943Z,5.35
2022-07-29T21:02:54.558Z,5.57
2022-07-29T21:05:21.867Z,5.43
2022-07-29T21:07:49.290Z,5.25
2022-07-29T21:10:18.473Z,5.55
2022-07-29T21:12:49.528Z,5.63
2022-07-29T21:15:20.813Z,5.43
2022-07-29T21:17:48.454Z,5.32
2022-07-29T21:20:17.530Z,5.32
2022-07-29T21:22:45.179Z,5.40
2022-07-29T21:25:12.664Z,5.32
2022-07-29T21:27:58.613Z,5.22
2022-07-29T21:30:26.631Z,5.70
2022-07-29T21:32:53.784Z,5.78
2022-07-29T21:36:01.628Z,5.43
2022-07-29T21:38:08.845Z,5.32
2022-07-29T21:40:36.536Z,5.43
2022-07-29T21:43:04.044Z,5.50
2022-07-29T21:45:31.199Z,5.30
2022-07-29T21:47:58.446Z,4.80
2022-07-29T21:50:25.648Z,5.40
2022-07-29T21:52:52.836Z,5.95
2022-07-29T21:55:20.577Z,5.25
2022-07-29T21:57:49.908Z,5.07
2022-07-29T22:00:17.129Z,5.45
2022-07-29T22:02:45.105Z,5.15
2022-07-29T22:05:12.686Z,5.57
2022-07-29T22:07:56.453Z,4.90
2022-07-29T22:10:26.126Z,4.80
2022-07-29T22:12:55.198Z,5.20
2022-07-29T22:15:22.494Z,5.25
2022-07-29T22:17:49.923Z,4.88
2022-07-29T22:20:17.325Z,5.40
2022-07-29T22:22:44.512Z,4.90
2022-07-29T22:25:11.839Z,5.20
2022-07-29T22:27:39.501Z,4.90
2022-07-29T22:30:07.967Z,4.90
2022-07-29T22:32:35.441Z,5.10
2022-07-29T22:35:02.767Z,4.60
2022-07-29T22:37:31.239Z,5.40
2022-07-29T22:39:58.472Z,4.82
2022-07-29T22:42:26.197Z,4.88
2022-07-29T22:44:53.324Z,4.63
2022-07-29T22:47:39.814Z,5.07
2022-07-29T22:50:08.228Z,4.82
2022-07-29T22:52:35.478Z,5.15
2022-07-29T22:55:03.866Z,5.00
2022-07-29T22:57:31.250Z,4.90
2022-07-29T23:00:01.803Z,4.95
2022-07-29T23:02:31.617Z,5.18
2022-07-29T23:04:58.796Z,4.90
2022-07-29T23:07:27.532Z,5.00
2022-07-29T23:09:54.728Z,4.70
2022-07-29T23:12:22.369Z,5.25
2022-07-29T23:14:49.586Z,5.28
2022-07-29T23:17:16.954Z,5.00
2022-07-29T23:19:44.244Z,5.00
2022-07-29T23:22:12.096Z,5.05
2022-07-29T23:24:39.359Z,4.97
2022-07-29T23:27:08.571Z,4.95
2022-07-29T23:29:36.858Z,4.82
2022-07-29T23:32:04.503Z,5.10
2022-07-29T23:34:31.767Z,5.07
2022-07-29T23:36:59.353Z,5.22
2022-07-29T23:39:26.723Z,4.82
2022-07-29T23:41:53.900Z,5.10
2022-07-29T23:44:21.568Z,4.78
2022-07-29T23:46:48.945Z,4.82
2022-07-29T23:49:16.341Z,5.07
2022-07-29T23:51:43.675Z,5.05
2022-07-29T23:54:10.929Z,5.10
2022-07-29T23:56:38.030Z,5.00
2022-07-29T23:59:05.946Z,4.90
